首页
METAR-TAF:

METAR-TAF

机场 :

阿什维尔, 北卡罗来纳州, 美国

纬度: 35-25-55N, 经度: 082-32-15W, 海拔: 660米

当前天气观测

该预报发布于21分钟前的22:54 UTC
风速6节,风向北转西北
温度 27°C
湿度 54%
气压 1015 hPa
能見度: 16.1公里
多云层高于6000英尺
多云层高于8500英尺

METAR: KAVL 032254Z 34006KT 10SM BKN060 BKN085 27/17 A2998 RMK AO2 SLP123 T02720172

时间: 19:15 (23:15 UTC)

预报

该预报发布于5小时和38分钟前的17:37 UTC
预报有效从03日的 18点(UTC)到 04日的 18点(UTC)
风速8节,风向
能見度: 10公里
散云层高于5000英尺
短暂存在
从 03日的 20点(UTC)到 03日的 24点(UTC)
多云层高于5000英尺
从 04日的 0200点(UTC)
风速节,风向
能見度: 10公里
散云层高于25000英尺
从 04日的 1000点(UTC)
风速节,风向
能見度: 9.7公里
散云层高于1600英尺
轻雾
从 04日的 1300点(UTC)
风速节,风向
能見度: 10公里
散云层高于4500英尺
几率 30%
从 04日的 15点(UTC)到 04日的 18点(UTC)
能見度: 6.4公里
多云层高于2500英尺, 积雨云.
雷暴, 雨, 轻雾

TAF: KAVL 031737Z 0318/0418 36008KT P6SM SCT050 TEMPO 0320/0324 BKN050 FM040200 00000KT P6SM SCT250 FM041000 00000KT 6SM BR SCT016 FM041300 00000KT P6SM SCT045 PROB30 0415/0418 4SM TSRA BR BKN025CB

超过4000个机场的气象观测和天气预报(METAR&TAF报告)。

可查询的气象台以黄色和红色小点在地图上表示。

将鼠标移到小点上方,可查看气象台名称。

然后点击查看天气观测和预报。

如需切换地图:点击带黑十字的绿色按钮放大地图;点击带横线的绿色按钮缩小地图;或者点击绿色箭头查看邻近地区的地图。


METAR-TAF: